sensor_id;sensor_type;location;lat;lon;timestamp;pressure;altitude;pressure_sealevel;temperature;humidity
76592;BME280;65481;47.600;19.682;2023-11-18T00:03:26;99999.13;;;4.02;92.61
76592;BME280;65481;47.600;19.682;2023-11-18T00:08:27;99999.13;;;4.02;92.70
76592;BME280;65481;47.600;19.682;2023-11-18T00:13:27;99998.88;;;3.97;92.52
76592;BME280;65481;47.600;19.682;2023-11-18T00:18:29;100003.09;;;3.98;92.80
76592;BME280;65481;47.600;19.682;2023-11-18T00:23:32;100006.50;;;3.91;93.13
76592;BME280;65481;47.600;19.682;2023-11-18T00:28:32;100013.25;;;3.86;93.55
76592;BME280;65481;47.600;19.682;2023-11-18T00:33:33;100022.84;;;3.78;94.32
76592;BME280;65481;47.600;19.682;2023-11-18T00:38:33;100024.00;;;3.76;94.77
76592;BME280;65481;47.600;19.682;2023-11-18T00:43:34;100035.66;;;3.73;94.56
76592;BME280;65481;47.600;19.682;2023-11-18T00:48:35;100036.63;;;3.72;94.96
76592;BME280;65481;47.600;19.682;2023-11-18T00:53:35;100039.06;;;3.74;94.78
76592;BME280;65481;47.600;19.682;2023-11-18T00:58:36;100035.84;;;3.72;95.12
76592;BME280;65481;47.600;19.682;2023-11-18T01:03:40;100044.22;;;3.67;95.32
76592;BME280;65481;47.600;19.682;2023-11-18T01:08:44;100043.78;;;3.63;95.77
76592;BME280;65481;47.600;19.682;2023-11-18T01:13:51;100050.00;;;3.62;95.58
76592;BME280;65481;47.600;19.682;2023-11-18T01:18:51;100051.34;;;3.58;95.75
76592;BME280;65481;47.600;19.682;2023-11-18T01:23:52;100056.97;;;3.55;95.57
76592;BME280;65481;47.600;19.682;2023-11-18T01:28:52;100056.34;;;3.53;95.92
76592;BME280;65481;47.600;19.682;2023-11-18T01:33:53;100052.75;;;3.54;95.69
76592;BME280;65481;47.600;19.682;2023-11-18T01:38:55;100055.34;;;3.54;95.62
76592;BME280;65481;47.600;19.682;2023-11-18T01:43:57;100059.38;;;3.57;95.74
76592;BME280;65481;47.600;19.682;2023-11-18T01:48:57;100065.38;;;3.57;95.61
76592;BME280;65481;47.600;19.682;2023-11-18T01:53:59;100059.94;;;3.52;96.21
76592;BME280;65481;47.600;19.682;2023-11-18T01:59:00;100058.50;;;3.49;96.52
76592;BME280;65481;47.600;19.682;2023-11-18T02:04:03;100051.66;;;3.48;96.33
76592;BME280;65481;47.600;19.682;2023-11-18T02:09:08;100055.25;;;3.47;96.21
76592;BME280;65481;47.600;19.682;2023-11-18T02:14:13;100062.91;;;3.49;96.03
76592;BME280;65481;47.600;19.682;2023-11-18T02:19:20;100075.44;;;3.39;96.69
76592;BME280;65481;47.600;19.682;2023-11-18T02:24:28;100073.94;;;3.29;97.57
76592;BME280;65481;47.600;19.682;2023-11-18T02:29:33;100081.50;;;3.24;97.86
76592;BME280;65481;47.600;19.682;2023-11-18T02:34:40;100088.88;;;3.21;98.45
76592;BME280;65481;47.600;19.682;2023-11-18T02:39:43;100090.59;;;3.13;98.83
76592;BME280;65481;47.600;19.682;2023-11-18T02:44:45;100089.16;;;3.11;99.76
76592;BME280;65481;47.600;19.682;2023-11-18T02:49:53;100089.16;;;3.11;99.55
76592;BME280;65481;47.600;19.682;2023-11-18T02:54:54;100098.16;;;3.08;100.00
76592;BME280;65481;47.600;19.682;2023-11-18T02:59:55;100087.63;;;3.01;100.00
76592;BME280;65481;47.600;19.682;2023-11-18T03:04:59;100087.38;;;2.96;100.00
76592;BME280;65481;47.600;19.682;2023-11-18T03:09:59;100094.13;;;2.91;100.00
76592;BME280;65481;47.600;19.682;2023-11-18T03:15:00;100094.13;;;2.91;100.00
76592;BME280;65481;47.600;19.682;2023-11-18T03:20:01;100099.06;;;2.85;100.00
76592;BME280;65481;47.600;19.682;2023-11-18T03:25:01;100104.28;;;2.85;100.00
76592;BME280;65481;47.600;19.682;2023-11-18T03:30:02;100111.28;;;2.85;100.00
76592;BME280;65481;47.600;19.682;2023-11-18T03:35:07;100113.28;;;2.83;100.00
76592;BME280;65481;47.600;19.682;2023-11-18T03:40:10;100121.09;;;2.83;100.00
76592;BME280;65481;47.600;19.682;2023-11-18T03:45:11;100115.06;;;2.82;100.00
76592;BME280;65481;47.600;19.682;2023-11-18T03:50:12;100121.25;;;2.81;100.00
76592;BME280;65481;47.600;19.682;2023-11-18T03:55:13;100134.91;;;2.83;100.00
76592;BME280;65481;47.600;19.682;2023-11-18T04:00:17;100133.94;;;2.84;100.00
76592;BME280;65481;47.600;19.682;2023-11-18T04:05:39;100130.16;;;2.87;100.00
76592;BME280;65481;47.600;19.682;2023-11-18T04:10:39;100127.81;;;2.92;100.00
76592;BME280;65481;47.600;19.682;2023-11-18T04:15:40;100126.47;;;2.96;100.00
76592;BME280;65481;47.600;19.682;2023-11-18T04:20:40;100126.47;;;2.96;100.00
76592;BME280;65481;47.600;19.682;2023-11-18T04:25:41;100111.63;;;2.97;100.00
76592;BME280;65481;47.600;19.682;2023-11-18T04:30:41;100110.03;;;2.96;100.00
76592;BME280;65481;47.600;19.682;2023-11-18T04:35:42;100119.94;;;3.00;100.00
76592;BME280;65481;47.600;19.682;2023-11-18T04:40:42;100120.09;;;2.99;100.00
76592;BME280;65481;47.600;19.682;2023-11-18T04:45:45;100137.47;;;2.92;100.00
76592;BME280;65481;47.600;19.682;2023-11-18T04:50:45;100140.06;;;2.92;100.00
76592;BME280;65481;47.600;19.682;2023-11-18T04:55:46;100152.25;;;2.91;100.00
76592;BME280;65481;47.600;19.682;2023-11-18T05:00:46;100161.06;;;2.90;100.00
76592;BME280;65481;47.600;19.682;2023-11-18T05:05:48;100168.09;;;2.90;100.00
76592;BME280;65481;47.600;19.682;2023-11-18T05:10:50;100174.75;;;2.92;100.00
76592;BME280;65481;47.600;19.682;2023-11-18T05:15:50;100184.97;;;2.94;100.00
76592;BME280;65481;47.600;19.682;2023-11-18T05:20:54;100185.97;;;2.93;100.00
76592;BME280;65481;47.600;19.682;2023-11-18T05:25:55;100191.38;;;2.91;100.00
76592;BME280;65481;47.600;19.682;2023-11-18T05:30:56;100200.44;;;2.95;100.00
76592;BME280;65481;47.600;19.682;2023-11-18T05:35:58;100202.31;;;3.01;100.00
76592;BME280;65481;47.600;19.682;2023-11-18T05:40:58;100202.31;;;3.01;100.00
76592;BME280;65481;47.600;19.682;2023-11-18T05:46:04;100203.78;;;3.04;100.00
76592;BME280;65481;47.600;19.682;2023-11-18T05:51:26;100212.41;;;3.05;100.00
76592;BME280;65481;47.600;19.682;2023-11-18T05:56:26;100209.00;;;3.04;100.00
76592;BME280;65481;47.600;19.682;2023-11-18T06:01:27;100221.84;;;3.06;100.00
76592;BME280;65481;47.600;19.682;2023-11-18T06:06:27;100220.69;;;3.08;100.00
76592;BME280;65481;47.600;19.682;2023-11-18T06:11:28;100226.53;;;3.10;100.00
76592;BME280;65481;47.600;19.682;2023-11-18T06:16:31;100230.41;;;3.14;100.00
76592;BME280;65481;47.600;19.682;2023-11-18T06:21:32;100248.13;;;3.19;100.00
76592;BME280;65481;47.600;19.682;2023-11-18T06:26:33;100240.56;;;3.24;100.00
76592;BME280;65481;47.600;19.682;2023-11-18T06:31:36;100248.31;;;3.32;100.00
76592;BME280;65481;47.600;19.682;2023-11-18T06:36:37;100245.25;;;3.44;100.00
76592;BME280;65481;47.600;19.682;2023-11-18T06:41:37;100250.03;;;3.55;100.00
76592;BME280;65481;47.600;19.682;2023-11-18T06:46:48;100250.91;;;3.77;100.00
76592;BME280;65481;47.600;19.682;2023-11-18T06:51:51;100256.53;;;4.33;100.00
76592;BME280;65481;47.600;19.682;2023-11-18T06:56:51;100264.44;;;5.11;96.66
76592;BME280;65481;47.600;19.682;2023-11-18T07:01:53;100258.44;;;5.95;92.45
76592;BME280;65481;47.600;19.682;2023-11-18T07:06:53;100266.88;;;6.59;89.52
76592;BME280;65481;47.600;19.682;2023-11-18T07:11:54;100278.81;;;7.02;84.18
76592;BME280;65481;47.600;19.682;2023-11-18T07:16:56;100288.59;;;7.60;82.13
76592;BME280;65481;47.600;19.682;2023-11-18T07:21:57;100275.53;;;7.92;78.71
76592;BME280;65481;47.600;19.682;2023-11-18T07:26:57;100293.44;;;8.15;77.21
76592;BME280;65481;47.600;19.682;2023-11-18T07:31:59;100286.25;;;8.36;74.83
76592;BME280;65481;47.600;19.682;2023-11-18T07:37:05;100284.28;;;8.63;74.17
76592;BME280;65481;47.600;19.682;2023-11-18T07:42:08;100288.06;;;9.00;72.10
76592;BME280;65481;47.600;19.682;2023-11-18T07:47:09;100287.44;;;9.23;69.24
76592;BME280;65481;47.600;19.682;2023-11-18T07:52:09;100282.50;;;9.52;68.02
76592;BME280;65481;47.600;19.682;2023-11-18T07:57:10;100295.28;;;10.04;65.39
76592;BME280;65481;47.600;19.682;2023-11-18T08:02:11;100276.38;;;10.38;63.05
76592;BME280;65481;47.600;19.682;2023-11-18T08:07:14;100267.84;;;10.54;62.06
76592;BME280;65481;47.600;19.682;2023-11-18T08:12:15;100275.47;;;10.74;59.56
76592;BME280;65481;47.600;19.682;2023-11-18T08:17:16;100284.16;;;10.63;56.89
76592;BME280;65481;47.600;19.682;2023-11-18T08:22:16;100281.53;;;10.87;55.97
76592;BME280;65481;47.600;19.682;2023-11-18T08:27:19;100284.91;;;10.94;56.94
76592;BME280;65481;47.600;19.682;2023-11-18T08:32:19;100294.78;;;11.11;57.25
76592;BME280;65481;47.600;19.682;2023-11-18T08:37:20;100288.00;;;11.03;54.91
76592;BME280;65481;47.600;19.682;2023-11-18T08:42:21;100277.44;;;11.03;55.34
76592;BME280;65481;47.600;19.682;2023-11-18T08:47:22;100282.56;;;11.33;55.06
76592;BME280;65481;47.600;19.682;2023-11-18T08:52:24;100296.94;;;11.26;53.64
76592;BME280;65481;47.600;19.682;2023-11-18T08:57:27;100306.91;;;11.47;53.69
76592;BME280;65481;47.600;19.682;2023-11-18T09:02:34;100310.63;;;11.99;53.30
76592;BME280;65481;47.600;19.682;2023-11-18T09:07:37;100316.72;;;12.00;51.94
76592;BME280;65481;47.600;19.682;2023-11-18T09:12:38;100315.91;;;11.99;50.86
76592;BME280;65481;47.600;19.682;2023-11-18T09:17:41;100308.69;;;11.82;52.24
76592;BME280;65481;47.600;19.682;2023-11-18T09:22:44;100303.63;;;12.05;52.13
76592;BME280;65481;47.600;19.682;2023-11-18T09:27:46;100304.41;;;11.93;51.37
76592;BME280;65481;47.600;19.682;2023-11-18T09:32:47;100305.91;;;11.89;51.81
76592;BME280;65481;47.600;19.682;2023-11-18T09:37:47;100304.56;;;11.87;52.44
76592;BME280;65481;47.600;19.682;2023-11-18T09:42:48;100307.31;;;11.92;50.35
76592;BME280;65481;47.600;19.682;2023-11-18T09:47:51;100314.56;;;11.73;52.02
76592;BME280;65481;47.600;19.682;2023-11-18T09:52:59;100334.56;;;11.69;51.01
76592;BME280;65481;47.600;19.682;2023-11-18T09:58:07;100334.47;;;11.75;50.34
76592;BME280;65481;47.600;19.682;2023-11-18T10:03:13;100327.00;;;11.60;51.46
76592;BME280;65481;47.600;19.682;2023-11-18T10:08:16;100330.94;;;11.58;50.94
76592;BME280;65481;47.600;19.682;2023-11-18T10:13:16;100339.84;;;11.69;51.80
76592;BME280;65481;47.600;19.682;2023-11-18T10:18:23;100344.78;;;11.77;52.13
76592;BME280;65481;47.600;19.682;2023-11-18T10:23:24;100353.44;;;11.72;52.48
76592;BME280;65481;47.600;19.682;2023-11-18T10:28:36;100353.78;;;11.64;51.54
76592;BME280;65481;47.600;19.682;2023-11-18T10:33:39;100348.03;;;11.43;52.85
76592;BME280;65481;47.600;19.682;2023-11-18T10:38:42;100347.94;;;11.38;52.12
76592;BME280;65481;47.600;19.682;2023-11-18T10:43:47;100338.75;;;11.52;52.50
76592;BME280;65481;47.600;19.682;2023-11-18T10:48:50;100339.19;;;11.49;52.33
76592;BME280;65481;47.600;19.682;2023-11-18T10:53:52;100354.69;;;11.22;51.59
76592;BME280;65481;47.600;19.682;2023-11-18T10:59:06;100344.59;;;11.43;52.85
76592;BME280;65481;47.600;19.682;2023-11-18T11:04:08;100345.97;;;11.33;52.26
76592;BME280;65481;47.600;19.682;2023-11-18T11:09:10;100360.22;;;11.20;52.48
76592;BME280;65481;47.600;19.682;2023-11-18T11:14:20;100359.38;;;11.08;52.90
76592;BME280;65481;47.600;19.682;2023-11-18T11:19:33;100367.75;;;11.05;53.67
76592;BME280;65481;47.600;19.682;2023-11-18T11:25:08;100372.59;;;11.08;53.01
76592;BME280;65481;47.600;19.682;2023-11-18T11:30:22;100376.06;;;11.09;54.12
76592;BME280;65481;47.600;19.682;2023-11-18T11:35:23;100373.81;;;10.82;52.80
76592;BME280;65481;47.600;19.682;2023-11-18T11:40:30;100385.97;;;10.83;54.78
76592;BME280;65481;47.600;19.682;2023-11-18T11:45:31;100388.22;;;10.67;54.02
76592;BME280;65481;47.600;19.682;2023-11-18T11:50:36;100388.22;;;10.67;54.63
76592;BME280;65481;47.600;19.682;2023-11-18T11:55:44;100391.41;;;10.57;54.08
76592;BME280;65481;47.600;19.682;2023-11-18T12:00:47;100400.50;;;10.43;55.25
76592;BME280;65481;47.600;19.682;2023-11-18T12:05:49;100393.97;;;10.45;53.65
76592;BME280;65481;47.600;19.682;2023-11-18T12:10:54;100406.59;;;10.43;54.81
76592;BME280;65481;47.600;19.682;2023-11-18T12:15:55;100404.59;;;10.57;53.92
76592;BME280;65481;47.600;19.682;2023-11-18T12:21:04;100405.34;;;10.46;54.81
76592;BME280;65481;47.600;19.682;2023-11-18T12:26:40;100418.81;;;10.38;54.62
76592;BME280;65481;47.600;19.682;2023-11-18T12:31:40;100423.22;;;10.25;54.30
76592;BME280;65481;47.600;19.682;2023-11-18T12:37:17;100420.66;;;10.19;57.33
76592;BME280;65481;47.600;19.682;2023-11-18T12:47:46;100441.66;;;9.88;59.47
76592;BME280;65481;47.600;19.682;2023-11-18T12:52:49;100449.81;;;9.80;59.35
76592;BME280;65481;47.600;19.682;2023-11-18T12:57:49;100450.59;;;9.36;62.44
76592;BME280;65481;47.600;19.682;2023-11-18T13:02:54;100452.78;;;9.07;64.74
76592;BME280;65481;47.600;19.682;2023-11-18T13:07:55;100460.22;;;8.85;65.89
76592;BME280;65481;47.600;19.682;2023-11-18T13:12:56;100468.56;;;8.75;62.51
76592;BME280;65481;47.600;19.682;2023-11-18T13:18:03;100467.81;;;8.61;61.77
76592;BME280;65481;47.600;19.682;2023-11-18T13:23:09;100467.44;;;8.51;63.56
76592;BME280;65481;47.600;19.682;2023-11-18T13:28:10;100481.00;;;8.41;64.49
76592;BME280;65481;47.600;19.682;2023-11-18T13:33:11;100481.44;;;8.31;63.78
76592;BME280;65481;47.600;19.682;2023-11-18T13:38:12;100478.25;;;7.89;65.65
76592;BME280;65481;47.600;19.682;2023-11-18T13:43:13;100480.28;;;7.53;67.73
76592;BME280;65481;47.600;19.682;2023-11-18T13:48:13;100489.97;;;7.39;68.88
76592;BME280;65481;47.600;19.682;2023-11-18T13:53:14;100498.06;;;7.38;68.99
76592;BME280;65481;47.600;19.682;2023-11-18T13:58:15;100511.41;;;7.56;67.92
76592;BME280;65481;47.600;19.682;2023-11-18T14:03:16;100510.81;;;7.68;65.68
76592;BME280;65481;47.600;19.682;2023-11-18T14:08:17;100517.47;;;7.64;64.41
76592;BME280;65481;47.600;19.682;2023-11-18T14:13:19;100515.44;;;7.52;64.15
76592;BME280;65481;47.600;19.682;2023-11-18T14:18:22;100515.22;;;7.40;64.75
76592;BME280;65481;47.600;19.682;2023-11-18T14:23:22;100517.22;;;7.25;64.99
76592;BME280;65481;47.600;19.682;2023-11-18T14:28:23;100524.22;;;7.11;64.63
76592;BME280;65481;47.600;19.682;2023-11-18T14:33:26;100533.28;;;7.02;65.62
76592;BME280;65481;47.600;19.682;2023-11-18T14:38:28;100536.44;;;6.84;67.89
76592;BME280;65481;47.600;19.682;2023-11-18T14:43:28;100543.00;;;6.66;68.12
76592;BME280;65481;47.600;19.682;2023-11-18T14:48:29;100546.97;;;6.55;70.13
76592;BME280;65481;47.600;19.682;2023-11-18T14:53:30;100543.66;;;6.40;72.28
76592;BME280;65481;47.600;19.682;2023-11-18T14:58:34;100550.00;;;6.24;73.82
76592;BME280;65481;47.600;19.682;2023-11-18T15:03:35;100555.91;;;6.04;75.36
76592;BME280;65481;47.600;19.682;2023-11-18T15:08:36;100562.25;;;5.95;75.68
76592;BME280;65481;47.600;19.682;2023-11-18T15:13:37;100568.59;;;5.85;75.35
76592;BME280;65481;47.600;19.682;2023-11-18T15:18:37;100568.56;;;5.79;75.36
76592;BME280;65481;47.600;19.682;2023-11-18T15:23:39;100575.28;;;5.66;75.41
76592;BME280;65481;47.600;19.682;2023-11-18T15:28:40;100589.47;;;5.57;75.99
76592;BME280;65481;47.600;19.682;2023-11-18T15:33:42;100591.03;;;5.51;76.32
76592;BME280;65481;47.600;19.682;2023-11-18T15:38:45;100603.00;;;5.39;78.07
76592;BME280;65481;47.600;19.682;2023-11-18T15:43:46;100601.28;;;5.31;79.39
76592;BME280;65481;47.600;19.682;2023-11-18T15:48:47;100615.47;;;5.22;80.96
76592;BME280;65481;47.600;19.682;2023-11-18T15:53:47;100634.53;;;5.15;81.41
76592;BME280;65481;47.600;19.682;2023-11-18T15:58:48;100639.47;;;5.10;81.93
76592;BME280;65481;47.600;19.682;2023-11-18T16:03:48;100656.50;;;5.06;82.61
76592;BME280;65481;47.600;19.682;2023-11-18T16:08:50;100659.25;;;4.98;83.08
76592;BME280;65481;47.600;19.682;2023-11-18T16:13:51;100651.75;;;4.95;83.12
76592;BME280;65481;47.600;19.682;2023-11-18T16:18:52;100661.94;;;4.90;82.88
76592;BME280;65481;47.600;19.682;2023-11-18T16:23:55;100666.06;;;4.84;83.26
76592;BME280;65481;47.600;19.682;2023-11-18T16:28:55;100671.84;;;4.79;83.65
76592;BME280;65481;47.600;19.682;2023-11-18T16:33:57;100668.31;;;4.72;83.85
76592;BME280;65481;47.600;19.682;2023-11-18T16:38:58;100677.03;;;4.64;84.16
76592;BME280;65481;47.600;19.682;2023-11-18T16:43:59;100673.69;;;4.55;84.91
76592;BME280;65481;47.600;19.682;2023-11-18T16:49:00;100680.78;;;4.47;85.57
76592;BME280;65481;47.600;19.682;2023-11-18T16:54:00;100688.91;;;4.52;85.24
76592;BME280;65481;47.600;19.682;2023-11-18T16:59:01;100687.63;;;4.48;85.95
76592;BME280;65481;47.600;19.682;2023-11-18T17:04:03;100698.13;;;4.39;86.09
76592;BME280;65481;47.600;19.682;2023-11-18T17:09:04;100701.63;;;4.32;86.36
76592;BME280;65481;47.600;19.682;2023-11-18T17:14:05;100697.00;;;4.19;87.15
76592;BME280;65481;47.600;19.682;2023-11-18T17:19:07;100702.16;;;4.04;88.35
76592;BME280;65481;47.600;19.682;2023-11-18T17:24:07;100710.53;;;3.91;89.06
76592;BME280;65481;47.600;19.682;2023-11-18T17:29:08;100713.03;;;3.84;89.53
76592;BME280;65481;47.600;19.682;2023-11-18T17:34:08;100714.88;;;3.67;90.60
76592;BME280;65481;47.600;19.682;2023-11-18T17:39:09;100728.84;;;3.51;91.96
76592;BME280;65481;47.600;19.682;2023-11-18T17:44:11;100728.84;;;3.43;92.48
76592;BME280;65481;47.600;19.682;2023-11-18T17:49:12;100746.16;;;3.36;92.60
76592;BME280;65481;47.600;19.682;2023-11-18T17:54:13;100758.25;;;3.28;93.72
76592;BME280;65481;47.600;19.682;2023-11-18T17:59:13;100774.22;;;3.33;93.72
76592;BME280;65481;47.600;19.682;2023-11-18T18:04:13;100781.84;;;3.35;93.48
76592;BME280;65481;47.600;19.682;2023-11-18T18:09:15;100796.03;;;3.41;93.58
76592;BME280;65481;47.600;19.682;2023-11-18T18:14:17;100790.50;;;3.27;94.00
76592;BME280;65481;47.600;19.682;2023-11-18T18:19:18;100791.78;;;3.40;93.85
76592;BME280;65481;47.600;19.682;2023-11-18T18:24:18;100776.78;;;3.50;93.40
76592;BME280;65481;47.600;19.682;2023-11-18T18:29:18;100787.88;;;3.44;93.13
76592;BME280;65481;47.600;19.682;2023-11-18T18:34:19;100781.81;;;3.52;93.24
76592;BME280;65481;47.600;19.682;2023-11-18T18:39:20;100789.69;;;3.43;93.57
76592;BME280;65481;47.600;19.682;2023-11-18T18:44:21;100791.13;;;3.46;93.32
76592;BME280;65481;47.600;19.682;2023-11-18T18:49:24;100790.47;;;3.44;93.00
76592;BME280;65481;47.600;19.682;2023-11-18T18:54:24;100790.16;;;3.39;93.22
76592;BME280;65481;47.600;19.682;2023-11-18T18:59:25;100797.97;;;3.39;93.25
76592;BME280;65481;47.600;19.682;2023-11-18T19:04:25;100801.59;;;3.29;93.48
76592;BME280;65481;47.600;19.682;2023-11-18T19:09:26;100790.03;;;3.24;93.99
76592;BME280;65481;47.600;19.682;2023-11-18T19:14:26;100779.47;;;3.17;93.83
76592;BME280;65481;47.600;19.682;2023-11-18T19:19:27;100772.31;;;2.94;94.67
76592;BME280;65481;47.600;19.682;2023-11-18T19:24:27;100771.81;;;2.82;95.52
76592;BME280;65481;47.600;19.682;2023-11-18T19:29:28;100769.84;;;2.68;95.71
76592;BME280;65481;47.600;19.682;2023-11-18T19:34:28;100776.19;;;2.65;96.06
76592;BME280;65481;47.600;19.682;2023-11-18T19:39:29;100777.19;;;2.64;95.92
76592;BME280;65481;47.600;19.682;2023-11-18T19:44:29;100804.84;;;2.57;96.44
76592;BME280;65481;47.600;19.682;2023-11-18T19:49:31;100818.84;;;2.56;97.05
76592;BME280;65481;47.600;19.682;2023-11-18T19:54:34;100794.75;;;2.54;97.20
76592;BME280;65481;47.600;19.682;2023-11-18T19:59:34;100806.47;;;2.50;97.07
76592;BME280;65481;47.600;19.682;2023-11-18T20:04:35;100817.88;;;2.57;97.53
76592;BME280;65481;47.600;19.682;2023-11-18T20:09:36;100824.72;;;2.58;96.99
76592;BME280;65481;47.600;19.682;2023-11-18T20:15:02;100832.66;;;2.40;97.82
76592;BME280;65481;47.600;19.682;2023-11-18T20:20:03;100845.22;;;2.53;97.61
76592;BME280;65481;47.600;19.682;2023-11-18T20:25:09;100846.06;;;2.62;96.91
76592;BME280;65481;47.600;19.682;2023-11-18T20:30:11;100834.53;;;2.64;96.98
76592;BME280;65481;47.600;19.682;2023-11-18T20:35:12;100834.66;;;2.54;97.37
76592;BME280;65481;47.600;19.682;2023-11-18T20:40:13;100843.41;;;2.45;97.65
76592;BME280;65481;47.600;19.682;2023-11-18T20:45:14;100853.47;;;2.32;97.83
76592;BME280;65481;47.600;19.682;2023-11-18T20:50:17;100858.69;;;2.32;97.98
76592;BME280;65481;47.600;19.682;2023-11-18T20:55:18;100828.59;;;2.37;96.91
76592;BME280;65481;47.600;19.682;2023-11-18T21:00:19;100835.78;;;2.44;97.60
76592;BME280;65481;47.600;19.682;2023-11-18T21:05:20;100831.84;;;2.39;97.63
76592;BME280;65481;47.600;19.682;2023-11-18T21:10:21;100822.41;;;2.38;98.01
76592;BME280;65481;47.600;19.682;2023-11-18T21:15:22;100845.94;;;2.20;97.94
76592;BME280;65481;47.600;19.682;2023-11-18T21:20:24;100857.84;;;1.88;97.75
76592;BME280;65481;47.600;19.682;2023-11-18T21:25:25;100854.19;;;1.73;98.40
76592;BME280;65481;47.600;19.682;2023-11-18T21:30:26;100863.00;;;1.54;98.02
76592;BME280;65481;47.600;19.682;2023-11-18T21:35:27;100855.28;;;1.17;97.61
76592;BME280;65481;47.600;19.682;2023-11-18T21:40:27;100862.69;;;1.12;98.39
76592;BME280;65481;47.600;19.682;2023-11-18T21:45:28;100872.94;;;1.14;98.91
76592;BME280;65481;47.600;19.682;2023-11-18T21:50:30;100865.88;;;1.06;99.31
76592;BME280;65481;47.600;19.682;2023-11-18T21:55:30;100856.03;;;0.92;99.29
76592;BME280;65481;47.600;19.682;2023-11-18T22:00:31;100867.75;;;0.96;99.82
76592;BME280;65481;47.600;19.682;2023-11-18T22:05:31;100876.94;;;0.72;99.95
76592;BME280;65481;47.600;19.682;2023-11-18T22:10:32;100875.97;;;0.73;100.00
76592;BME280;65481;47.600;19.682;2023-11-18T22:15:33;100870.25;;;0.87;100.00
76592;BME280;65481;47.600;19.682;2023-11-18T22:20:35;100863.00;;;0.91;100.00
76592;BME280;65481;47.600;19.682;2023-11-18T22:25:37;100865.44;;;0.93;100.00
76592;BME280;65481;47.600;19.682;2023-11-18T22:30:38;100868.72;;;0.95;100.00
76592;BME280;65481;47.600;19.682;2023-11-18T22:35:38;100864.19;;;0.97;100.00
76592;BME280;65481;47.600;19.682;2023-11-18T22:40:39;100873.16;;;0.84;100.00
76592;BME280;65481;47.600;19.682;2023-11-18T22:45:40;100862.47;;;0.69;100.00
76592;BME280;65481;47.600;19.682;2023-11-18T22:50:41;100862.25;;;0.63;100.00
76592;BME280;65481;47.600;19.682;2023-11-18T22:55:41;100868.03;;;0.74;100.00
76592;BME280;65481;47.600;19.682;2023-11-18T23:00:42;100863.88;;;0.82;100.00
76592;BME280;65481;47.600;19.682;2023-11-18T23:05:42;100868.50;;;0.88;100.00
76592;BME280;65481;47.600;19.682;2023-11-18T23:10:44;100886.47;;;0.99;100.00
76592;BME280;65481;47.600;19.682;2023-11-18T23:15:46;100886.22;;;1.11;100.00
76592;BME280;65481;47.600;19.682;2023-11-18T23:20:46;100864.91;;;1.07;100.00
76592;BME280;65481;47.600;19.682;2023-11-18T23:25:47;100857.28;;;1.05;100.00
76592;BME280;65481;47.600;19.682;2023-11-18T23:30:48;100853.94;;;1.13;100.00
76592;BME280;65481;47.600;19.682;2023-11-18T23:35:48;100859.72;;;1.07;100.00
76592;BME280;65481;47.600;19.682;2023-11-18T23:40:49;100854.38;;;0.90;100.00
76592;BME280;65481;47.600;19.682;2023-11-18T23:45:50;100847.25;;;0.74;100.00
76592;BME280;65481;47.600;19.682;2023-11-18T23:50:50;100853.34;;;0.65;100.00
76592;BME280;65481;47.600;19.682;2023-11-18T23:55:51;100829.50;;;0.52;100.00
